createdAt,value
2023-02-18T00:00:31.306Z,65.03
2023-02-18T00:01:31.644Z,64.83
2023-02-18T00:02:32.009Z,65.03
2023-02-18T00:03:32.249Z,65.34
2023-02-18T00:04:32.446Z,65.34
2023-02-18T00:05:32.781Z,65.03
2023-02-18T00:06:33.102Z,64.93
2023-02-18T00:07:33.425Z,65.13
2023-02-18T00:08:33.765Z,65.03
2023-02-18T00:09:34.102Z,65.03
2023-02-18T00:10:34.458Z,65.13
2023-02-18T00:11:34.813Z,65.23
2023-02-18T00:12:35.124Z,65.58
2023-02-18T00:13:35.445Z,65.26
2023-02-18T00:14:35.766Z,65.47
2023-02-18T00:15:36.196Z,65.58
2023-02-18T00:16:36.414Z,65.58
2023-02-18T00:17:36.731Z,65.68
2023-02-18T00:18:37.055Z,65.68
2023-02-18T00:19:37.376Z,65.37
2023-02-18T00:20:37.725Z,65.58
2023-02-18T00:21:38.047Z,65.68
2023-02-18T00:22:38.387Z,65.78
2023-02-18T00:23:38.717Z,65.89
2023-02-18T00:24:39.057Z,65.99
2023-02-18T00:25:39.397Z,66.09
2023-02-18T00:26:39.738Z,66.09
2023-02-18T00:27:40.065Z,65.99
2023-02-18T00:28:40.405Z,65.99
2023-02-18T00:29:40.722Z,65.99
2023-02-18T00:30:41.058Z,66.09
2023-02-18T00:31:41.378Z,66.09
2023-02-18T00:32:41.517Z,66.40
2023-02-18T00:33:41.829Z,66.19
2023-02-18T00:34:42.157Z,66.09
2023-02-18T00:35:42.528Z,66.19
2023-02-18T00:36:42.726Z,66.30
2023-02-18T00:37:43.041Z,66.50
2023-02-18T00:38:43.360Z,66.40
2023-02-18T00:39:43.659Z,66.09
2023-02-18T00:40:43.999Z,66.19
2023-02-18T00:41:44.350Z,66.50
2023-02-18T00:42:44.561Z,66.50
2023-02-18T00:43:44.891Z,66.40
2023-02-18T00:44:45.254Z,66.50
2023-02-18T00:45:45.552Z,66.40
2023-02-18T00:46:45.896Z,66.50
2023-02-18T00:47:46.124Z,66.71
2023-02-18T00:48:46.444Z,66.61
2023-02-18T00:49:46.765Z,66.74
2023-02-18T00:50:47.105Z,66.94
2023-02-18T00:51:47.416Z,66.94
2023-02-18T00:52:47.728Z,67.15
2023-02-18T00:53:48.023Z,67.15
2023-02-18T00:54:48.356Z,67.25
2023-02-18T00:55:48.694Z,67.15
2023-02-18T00:56:49.032Z,67.15
2023-02-18T00:57:49.313Z,67.05
2023-02-18T00:58:49.573Z,67.15
2023-02-18T00:59:49.793Z,67.15
2023-02-18T01:00:50.127Z,67.05
2023-02-18T01:01:50.411Z,67.05
2023-02-18T01:02:50.634Z,67.15
2023-02-18T01:03:50.950Z,67.36
2023-02-18T01:04:51.332Z,67.15
2023-02-18T01:05:51.558Z,67.15
2023-02-18T01:06:51.897Z,67.05
2023-02-18T01:07:52.206Z,67.05
2023-02-18T01:08:52.532Z,67.15
2023-02-18T01:09:52.855Z,66.84
2023-02-18T01:10:53.201Z,67.05
2023-02-18T01:11:53.412Z,66.94
2023-02-18T01:12:53.740Z,67.15
2023-02-18T01:13:54.076Z,67.15
2023-02-18T01:14:54.402Z,67.25
2023-02-18T01:15:54.750Z,67.36
2023-02-18T01:16:55.064Z,67.57
2023-02-18T01:17:55.402Z,67.57
2023-02-18T01:18:55.704Z,67.57
2023-02-18T01:19:56.046Z,67.66
2023-02-18T01:20:56.377Z,67.25
2023-02-18T01:21:56.723Z,67.36
2023-02-18T01:22:56.922Z,67.46
2023-02-18T01:23:57.246Z,67.57
2023-02-18T01:24:57.552Z,67.66
2023-02-18T01:25:57.914Z,67.66
2023-02-18T01:26:58.113Z,67.46
2023-02-18T01:27:58.436Z,67.66
2023-02-18T01:28:58.784Z,67.57
2023-02-18T01:29:59.129Z,67.66
2023-02-18T01:30:59.534Z,67.87
2023-02-18T01:31:59.810Z,67.97
2023-02-18T01:33:00.085Z,67.97
2023-02-18T01:34:00.402Z,67.97
2023-02-18T01:35:00.733Z,67.97
2023-02-18T01:36:01.078Z,68.08
2023-02-18T01:37:01.298Z,68.18
2023-02-18T01:38:01.636Z,68.18
2023-02-18T01:39:01.867Z,68.18
2023-02-18T01:40:02.206Z,67.97
2023-02-18T01:41:02.596Z,67.97
2023-02-18T01:42:02.820Z,67.97
2023-02-18T01:43:03.150Z,68.18
2023-02-18T01:44:03.503Z,68.39
2023-02-18T01:45:03.796Z,68.42
2023-02-18T01:46:04.139Z,68.62
2023-02-18T01:47:04.354Z,68.52
2023-02-18T01:48:04.693Z,68.62
2023-02-18T01:49:05.035Z,68.93
2023-02-18T01:50:05.267Z,68.62
2023-02-18T01:51:05.627Z,68.73
2023-02-18T01:52:05.869Z,68.42
2023-02-18T01:53:06.073Z,68.52
2023-02-18T01:54:06.321Z,68.73
2023-02-18T01:55:06.645Z,68.83
2023-02-18T01:56:07.334Z,68.62
2023-02-18T01:57:07.244Z,68.62
2023-02-18T01:58:07.558Z,68.93
2023-02-18T01:59:07.785Z,69.04
2023-02-18T02:00:08.126Z,69.14
2023-02-18T02:01:08.549Z,69.24
2023-02-18T02:02:08.806Z,69.24
2023-02-18T02:03:09.041Z,69.24
2023-02-18T02:04:09.280Z,69.24
2023-02-18T02:05:09.496Z,69.35
2023-02-18T02:06:09.998Z,69.45
2023-02-18T02:07:10.134Z,69.65
2023-02-18T02:08:10.467Z,69.55
2023-02-18T02:09:10.824Z,69.45
2023-02-18T02:10:11.138Z,69.45
2023-02-18T02:11:11.467Z,69.65
2023-02-18T02:12:11.702Z,69.76
2023-02-18T02:13:12.030Z,69.76
2023-02-18T02:14:12.350Z,69.86
2023-02-18T02:15:12.722Z,69.76
2023-02-18T02:16:13.012Z,69.96
2023-02-18T02:17:13.231Z,70.07
2023-02-18T02:18:13.561Z,69.96
2023-02-18T02:19:13.782Z,69.96
2023-02-18T02:20:14.112Z,69.86
2023-02-18T02:21:14.356Z,70.10
2023-02-18T02:22:14.572Z,70.20
2023-02-18T02:23:14.881Z,70.20
2023-02-18T02:24:15.234Z,70.41
2023-02-18T02:25:15.571Z,70.41
2023-02-18T02:26:15.956Z,70.41
2023-02-18T02:27:16.183Z,70.51
2023-02-18T02:28:16.540Z,70.72
2023-02-18T02:29:16.762Z,70.72
2023-02-18T02:30:17.150Z,70.72
2023-02-18T02:31:17.485Z,70.82
2023-02-18T02:32:17.617Z,71.03
2023-02-18T02:33:17.944Z,70.92
2023-02-18T02:34:18.293Z,71.03
2023-02-18T02:35:18.616Z,70.92
2023-02-18T02:36:18.865Z,71.03
2023-02-18T02:37:19.092Z,71.23
2023-02-18T02:38:19.413Z,71.34
2023-02-18T02:39:19.763Z,71.23
2023-02-18T02:40:19.985Z,71.58
2023-02-18T02:41:20.325Z,71.55
2023-02-18T02:42:20.651Z,71.47
2023-02-18T02:43:20.979Z,71.68
2023-02-18T02:44:21.335Z,71.68
2023-02-18T02:45:21.555Z,71.47
2023-02-18T02:46:21.916Z,71.47
2023-02-18T02:47:22.144Z,71.68
2023-02-18T02:48:22.480Z,71.58
2023-02-18T02:49:22.705Z,71.58
2023-02-18T02:50:23.026Z,71.58
2023-02-18T02:51:23.380Z,71.78
2023-02-18T02:52:23.719Z,71.89
2023-02-18T02:53:23.946Z,71.99
2023-02-18T02:54:24.218Z,72.09
2023-02-18T02:55:24.432Z,71.99
2023-02-18T02:56:24.682Z,71.99
2023-02-18T02:57:24.912Z,71.99
2023-02-18T02:58:25.142Z,71.99
2023-02-18T02:59:25.371Z,72.30
2023-02-18T03:00:25.722Z,72.19
2023-02-18T03:01:25.955Z,72.30
2023-02-18T03:02:26.182Z,72.40
2023-02-18T03:03:26.516Z,72.40
2023-02-18T03:04:26.753Z,72.40
2023-02-18T03:05:26.976Z,72.61
2023-02-18T03:06:27.341Z,72.71
2023-02-18T03:07:27.558Z,72.71
2023-02-18T03:08:27.917Z,72.61
2023-02-18T03:09:28.244Z,72.61
2023-02-18T03:10:28.604Z,72.81
2023-02-18T03:11:28.834Z,72.92
2023-02-18T03:12:29.179Z,73.02
2023-02-18T03:13:29.537Z,73.02
2023-02-18T03:14:29.773Z,72.92
2023-02-18T03:15:30.127Z,73.12
2023-02-18T03:16:30.393Z,73.12
2023-02-18T03:17:30.606Z,73.12
2023-02-18T03:18:30.929Z,73.12
2023-02-18T03:19:31.237Z,73.22
2023-02-18T03:20:31.586Z,73.33
2023-02-18T03:21:31.816Z,73.22
2023-02-18T03:22:32.028Z,73.36
2023-02-18T03:23:32.377Z,73.57
2023-02-18T03:24:32.731Z,73.57
2023-02-18T03:25:33.052Z,73.57
2023-02-18T03:26:33.448Z,73.74
2023-02-18T03:27:33.659Z,73.68
2023-02-18T03:28:33.959Z,73.77
2023-02-18T03:29:34.302Z,73.77
2023-02-18T03:30:34.631Z,73.77
2023-02-18T03:31:35.043Z,73.98
2023-02-18T03:32:35.124Z,73.98
2023-02-18T03:33:35.352Z,73.98
2023-02-18T03:34:43.105Z,73.88
2023-02-18T03:35:35.824Z,73.98
2023-02-18T03:36:36.174Z,73.98
2023-02-18T03:37:36.385Z,74.08
2023-02-18T03:38:36.624Z,74.19
2023-02-18T03:39:36.957Z,74.29
2023-02-18T03:40:37.288Z,74.19
2023-02-18T03:41:37.620Z,74.40
2023-02-18T03:42:37.957Z,74.40
2023-02-18T03:43:38.277Z,74.50
2023-02-18T03:44:38.595Z,74.60
2023-02-18T03:45:38.956Z,74.71
2023-02-18T03:46:39.289Z,74.81
2023-02-18T03:47:39.498Z,74.81
2023-02-18T03:48:39.847Z,74.91
2023-02-18T03:49:40.219Z,75.01
2023-02-18T03:50:40.447Z,75.12
2023-02-18T03:51:40.665Z,75.22
2023-02-18T03:52:40.996Z,75.32
2023-02-18T03:53:41.315Z,75.43
2023-02-18T03:54:41.657Z,75.43
2023-02-18T03:55:41.877Z,75.53
2023-02-18T03:56:42.247Z,75.63
2023-02-18T03:57:42.446Z,75.74
2023-02-18T03:58:42.797Z,75.95
2023-02-18T03:59:43.002Z,76.04
2023-02-18T04:00:43.376Z,75.95
2023-02-18T04:01:43.617Z,76.04
2023-02-18T04:02:43.841Z,76.04
2023-02-18T04:03:44.146Z,76.04
2023-02-18T04:04:44.504Z,76.15
2023-02-18T04:05:44.725Z,76.35
2023-02-18T04:06:45.086Z,76.35
2023-02-18T04:07:45.299Z,76.56
2023-02-18T04:08:45.607Z,76.60
2023-02-18T04:09:45.929Z,76.60
2023-02-18T04:10:46.289Z,76.60
2023-02-18T04:11:46.536Z,76.56
2023-02-18T04:12:46.756Z,76.60
2023-02-18T04:13:46.997Z,76.70
2023-02-18T04:14:47.247Z,76.81
2023-02-18T04:15:47.465Z,76.81
2023-02-18T04:16:47.830Z,76.90
2023-02-18T04:17:48.041Z,76.81
2023-02-18T04:18:48.290Z,76.81
2023-02-18T04:19:48.598Z,76.90
2023-02-18T04:20:48.926Z,77.11
2023-02-18T04:21:49.258Z,77.11
2023-02-18T04:22:49.600Z,77.11
2023-02-18T04:23:49.911Z,77.11
2023-02-18T04:24:50.236Z,77.01
2023-02-18T04:25:50.458Z,77.01
2023-02-18T04:26:50.838Z,77.01
2023-02-18T04:27:51.068Z,77.01
2023-02-18T04:28:51.379Z,77.11
2023-02-18T04:29:51.736Z,77.22
2023-02-18T04:30:52.115Z,77.22
2023-02-18T04:31:52.381Z,77.01
2023-02-18T04:32:52.579Z,77.11
2023-02-18T04:33:52.809Z,77.11
2023-02-18T04:34:53.050Z,77.22
2023-02-18T04:35:53.306Z,77.32
2023-02-18T04:36:53.538Z,77.32
2023-02-18T04:37:53.758Z,77.32
2023-02-18T04:38:54.125Z,77.22
2023-02-18T04:39:54.331Z,77.32
2023-02-18T04:40:54.556Z,77.32
2023-02-18T04:41:54.905Z,77.32
2023-02-18T04:42:55.234Z,77.56
2023-02-18T04:43:55.572Z,77.56
2023-02-18T04:44:55.903Z,77.56
2023-02-18T04:45:56.270Z,77.77
2023-02-18T04:46:56.511Z,77.67
2023-02-18T04:47:56.737Z,77.77
2023-02-18T04:48:57.047Z,77.67
2023-02-18T04:49:57.363Z,77.67
2023-02-18T04:50:57.724Z,77.67
2023-02-18T04:51:57.979Z,77.67
2023-02-18T04:52:58.203Z,77.67
2023-02-18T04:53:58.434Z,77.56
2023-02-18T04:54:58.702Z,77.56
2023-02-18T04:55:58.926Z,77.67
2023-02-18T04:56:59.156Z,77.87
2023-02-18T04:57:59.398Z,77.87
2023-02-18T04:58:59.764Z,77.77
2023-02-18T05:00:00.136Z,77.67
2023-02-18T05:01:00.391Z,77.77
2023-02-18T05:02:00.623Z,77.77
2023-02-18T05:03:00.841Z,77.77
2023-02-18T05:04:01.148Z,77.87
2023-02-18T05:05:01.333Z,77.87
2023-02-18T05:06:01.656Z,77.87
2023-02-18T05:07:02.003Z,77.77
2023-02-18T05:08:02.212Z,77.77
2023-02-18T05:09:02.573Z,77.77
2023-02-18T05:10:02.794Z,77.87
2023-02-18T05:11:03.022Z,77.77
2023-02-18T05:12:03.347Z,77.67
2023-02-18T05:13:03.698Z,77.87
2023-02-18T05:14:04.016Z,77.67
2023-02-18T05:15:04.386Z,77.87
2023-02-18T05:16:04.711Z,77.87
2023-02-18T05:17:05.069Z,77.77
2023-02-18T05:18:05.310Z,77.67
2023-02-18T05:19:05.538Z,77.67
2023-02-18T05:20:05.755Z,77.67
2023-02-18T05:21:06.088Z,77.77
2023-02-18T05:22:06.352Z,77.77
2023-02-18T05:23:06.588Z,77.77
2023-02-18T05:24:06.797Z,77.87
2023-02-18T05:25:07.141Z,77.77
2023-02-18T05:26:07.672Z,77.77
2023-02-18T05:27:07.675Z,77.77
2023-02-18T05:28:07.993Z,77.77
2023-02-18T05:29:08.371Z,77.77
2023-02-18T05:30:08.660Z,77.87
2023-02-18T05:31:08.997Z,77.91
2023-02-18T05:32:09.241Z,77.98
2023-02-18T05:33:09.428Z,77.98
2023-02-18T05:34:09.741Z,78.08
2023-02-18T05:35:10.102Z,78.08
2023-02-18T05:36:10.640Z,77.98
2023-02-18T05:37:10.770Z,77.98
2023-02-18T05:38:11.103Z,77.98
2023-02-18T05:39:11.321Z,77.98
2023-02-18T05:40:11.659Z,77.98
2023-02-18T05:41:11.977Z,77.98
2023-02-18T05:42:12.324Z,77.98
2023-02-18T05:43:12.672Z,78.08
2023-02-18T05:44:13.023Z,78.08
2023-02-18T05:45:13.214Z,78.08
2023-02-18T05:46:13.539Z,77.98
2023-02-18T05:47:13.872Z,77.98
2023-02-18T05:48:14.206Z,77.77
2023-02-18T05:49:14.534Z,77.67
2023-02-18T05:50:14.897Z,77.77
2023-02-18T05:51:15.100Z,77.87
2023-02-18T05:52:15.494Z,77.87
2023-02-18T05:53:17.636Z,77.77
2023-02-18T05:54:16.005Z,77.77
2023-02-18T05:55:16.243Z,77.67
2023-02-18T05:56:16.488Z,77.67
2023-02-18T05:57:16.723Z,77.56
2023-02-18T05:58:16.959Z,77.77
2023-02-18T05:59:17.296Z,77.87
2023-02-18T06:00:17.536Z,77.77
2023-02-18T06:01:17.885Z,77.77
2023-02-18T06:02:18.139Z,77.56
2023-02-18T06:03:18.370Z,77.67
2023-02-18T06:04:18.695Z,77.56
2023-02-18T06:05:18.928Z,77.56
2023-02-18T06:06:19.258Z,77.67
2023-02-18T06:07:19.628Z,77.46
2023-02-18T06:08:19.912Z,77.36
2023-02-18T06:09:20.269Z,77.36
2023-02-18T06:10:20.619Z,77.25
2023-02-18T06:11:20.857Z,77.15
2023-02-18T06:12:21.097Z,77.15
2023-02-18T06:13:21.315Z,77.15
2023-02-18T06:14:21.540Z,77.15
2023-02-18T06:15:21.808Z,77.25
2023-02-18T06:16:22.144Z,77.25
2023-02-18T06:17:22.402Z,77.15
2023-02-18T06:18:22.639Z,77.25
2023-02-18T06:19:22.859Z,77.04
2023-02-18T06:20:23.121Z,77.04
2023-02-18T06:21:23.381Z,77.11
2023-02-18T06:22:23.640Z,77.11
2023-02-18T06:23:23.858Z,77.11
2023-02-18T06:24:24.073Z,77.01
2023-02-18T06:25:24.330Z,76.90
2023-02-18T06:26:24.609Z,76.81
2023-02-18T06:27:24.884Z,76.90
2023-02-18T06:28:25.106Z,76.81
2023-02-18T06:29:25.335Z,76.81
2023-02-18T06:30:25.574Z,76.81
2023-02-18T06:31:25.919Z,76.81
2023-02-18T06:32:26.323Z,76.81
2023-02-18T06:33:26.382Z,76.60
2023-02-18T06:34:26.725Z,76.39
2023-02-18T06:35:27.068Z,76.39
2023-02-18T06:36:27.320Z,76.60
2023-02-18T06:37:27.558Z,76.50
2023-02-18T06:38:27.797Z,76.50
2023-02-18T06:39:28.020Z,76.29
2023-02-18T06:40:28.279Z,76.18
2023-02-18T06:41:28.495Z,76.39
2023-02-18T06:42:28.850Z,76.29
2023-02-18T06:43:29.107Z,76.08
2023-02-18T06:44:29.350Z,76.18
2023-02-18T06:45:29.578Z,76.08
2023-02-18T06:46:29.838Z,75.98
2023-02-18T06:47:30.097Z,76.08
2023-02-18T06:48:30.317Z,76.18
2023-02-18T06:49:30.570Z,76.18
2023-02-18T06:50:30.802Z,75.98
2023-02-18T06:51:31.030Z,75.95
2023-02-18T06:52:31.291Z,75.63
2023-02-18T06:53:31.546Z,75.53
2023-02-18T06:54:31.813Z,75.43
2023-02-18T06:55:32.038Z,75.32
2023-02-18T06:56:32.283Z,75.22
2023-02-18T06:57:32.554Z,75.22
2023-02-18T06:58:32.807Z,75.22
2023-02-18T06:59:33.071Z,75.01
2023-02-18T07:00:33.485Z,74.81
2023-02-18T07:01:33.616Z,74.91
2023-02-18T07:02:33.914Z,75.01
2023-02-18T07:03:34.197Z,74.91
2023-02-18T07:04:34.476Z,74.81
2023-02-18T07:05:34.746Z,74.81
2023-02-18T07:06:35.040Z,74.81
2023-02-18T07:07:35.305Z,74.81
2023-02-18T07:08:35.548Z,74.71
2023-02-18T07:09:35.797Z,74.50
2023-02-18T07:10:36.072Z,74.50
2023-02-18T07:11:36.306Z,74.40
2023-02-18T07:12:36.616Z,74.29
2023-02-18T07:13:36.867Z,74.40
2023-02-18T07:14:37.140Z,74.46
2023-02-18T07:15:37.408Z,74.08
2023-02-18T07:16:37.799Z,73.98
2023-02-18T07:17:37.987Z,74.29
2023-02-18T07:18:38.240Z,74.08
2023-02-18T07:19:38.506Z,74.05
2023-02-18T07:20:38.738Z,74.05
2023-02-18T07:21:38.994Z,74.15
2023-02-18T07:22:39.297Z,74.15
2023-02-18T07:23:39.528Z,73.64
2023-02-18T07:24:39.788Z,73.64
2023-02-18T07:25:40.037Z,73.85
2023-02-18T07:26:40.277Z,73.74
2023-02-18T07:27:40.537Z,73.64
2023-02-18T07:28:40.780Z,73.54
2023-02-18T07:29:41.048Z,73.33
2023-02-18T07:30:41.289Z,73.22
2023-02-18T07:31:41.646Z,73.12
2023-02-18T07:32:41.781Z,73.02
2023-02-18T07:33:42.039Z,73.12
2023-02-18T07:34:42.292Z,72.99
2023-02-18T07:35:42.539Z,72.78
2023-02-18T07:36:42.822Z,72.58
2023-02-18T07:37:43.081Z,72.58
2023-02-18T07:38:43.401Z,72.58
2023-02-18T07:39:43.690Z,72.47
2023-02-18T07:40:43.933Z,72.19
2023-02-18T07:41:44.197Z,72.40
2023-02-18T07:42:44.453Z,72.27
2023-02-18T07:43:44.758Z,72.30
2023-02-18T07:44:44.916Z,72.16
2023-02-18T07:45:45.196Z,72.16
2023-02-18T07:46:47.384Z,71.95
2023-02-18T07:47:45.815Z,72.06
2023-02-18T07:48:46.064Z,72.16
2023-02-18T07:49:46.318Z,71.85
2023-02-18T07:50:47.315Z,71.75
2023-02-18T07:51:46.818Z,71.55
2023-02-18T07:52:47.095Z,71.75
2023-02-18T07:53:47.354Z,71.55
2023-02-18T07:54:47.624Z,71.61
2023-02-18T07:55:47.865Z,71.61
2023-02-18T07:56:48.116Z,71.41
2023-02-18T07:57:48.376Z,71.61
2023-02-18T07:58:48.636Z,71.72
2023-02-18T07:59:48.888Z,71.64
2023-02-18T08:00:49.126Z,71.64
2023-02-18T08:01:49.364Z,71.85
2023-02-18T08:02:49.629Z,71.95
2023-02-18T08:03:49.888Z,71.95
2023-02-18T08:04:50.161Z,71.95
2023-02-18T08:05:50.414Z,71.92
2023-02-18T08:06:50.657Z,71.92
2023-02-18T08:07:50.918Z,71.82
2023-02-18T08:08:51.178Z,71.92
2023-02-18T08:09:51.427Z,71.92
2023-02-18T08:10:51.687Z,71.61
2023-02-18T08:11:51.908Z,71.41
2023-02-18T08:12:52.204Z,71.30
2023-02-18T08:13:52.437Z,71.20
2023-02-18T08:14:52.707Z,71.20
2023-02-18T08:15:52.933Z,71.30
2023-02-18T08:16:53.218Z,71.30
2023-02-18T08:17:53.483Z,71.30
2023-02-18T08:18:53.724Z,71.41
2023-02-18T08:19:53.960Z,71.30
2023-02-18T08:20:54.201Z,70.89
2023-02-18T08:21:54.455Z,70.89
2023-02-18T08:22:54.726Z,70.89
2023-02-18T08:23:54.979Z,71.06
2023-02-18T08:24:55.228Z,71.06
2023-02-18T08:25:55.499Z,70.86
2023-02-18T08:27:00.697Z,70.76
2023-02-18T08:27:57.005Z,70.76
2023-02-18T08:28:56.328Z,70.55
2023-02-18T08:29:56.581Z,70.14
2023-02-18T08:30:56.893Z,70.10
2023-02-18T08:31:57.235Z,70.21
2023-02-18T08:32:57.429Z,70.31
2023-02-18T08:33:57.698Z,70.10
2023-02-18T08:34:57.951Z,69.79
2023-02-18T08:35:58.192Z,69.90
2023-02-18T08:36:58.436Z,70.10
2023-02-18T08:37:58.761Z,69.70
2023-02-18T08:38:58.987Z,69.76
2023-02-18T08:39:59.212Z,69.76
2023-02-18T08:40:59.451Z,69.56
2023-02-18T08:41:59.692Z,69.56
2023-02-18T08:42:59.943Z,69.46
2023-02-18T08:44:00.177Z,69.25
2023-02-18T08:45:00.434Z,69.15
2023-02-18T08:46:00.688Z,69.35
2023-02-18T08:47:00.958Z,69.56
2023-02-18T08:48:17.599Z,69.66
2023-02-18T08:49:02.548Z,69.56
2023-02-18T08:50:01.856Z,69.63
2023-02-18T08:51:02.085Z,69.73
2023-02-18T08:52:02.325Z,69.53
2023-02-18T08:53:02.586Z,69.22
2023-02-18T08:54:02.848Z,69.32
2023-02-18T08:55:03.095Z,69.53
2023-02-18T08:56:03.336Z,69.73
2023-02-18T08:57:03.586Z,69.56
2023-02-18T08:58:03.853Z,69.66
2023-02-18T08:59:04.100Z,69.84
2023-02-18T09:00:04.327Z,69.84
2023-02-18T09:01:04.584Z,69.73
2023-02-18T09:02:04.837Z,69.53
2023-02-18T09:03:05.097Z,69.53
2023-02-18T09:04:05.387Z,69.53
2023-02-18T09:05:05.636Z,69.63
2023-02-18T09:06:05.901Z,69.84
2023-02-18T09:07:06.148Z,69.94
2023-02-18T09:08:06.412Z,69.94
2023-02-18T09:09:06.665Z,70.14
2023-02-18T09:10:06.928Z,70.14
2023-02-18T09:11:07.360Z,70.04
2023-02-18T09:12:07.418Z,70.04
2023-02-18T09:13:07.711Z,69.84
2023-02-18T09:14:07.969Z,69.94
2023-02-18T09:15:08.251Z,70.25
2023-02-18T09:16:08.646Z,69.94
2023-02-18T09:17:08.801Z,70.04
2023-02-18T09:18:09.090Z,69.84
2023-02-18T09:19:09.365Z,69.84
2023-02-18T09:20:09.645Z,70.14
2023-02-18T09:21:10.301Z,70.14
2023-02-18T09:22:10.190Z,70.35
2023-02-18T09:23:10.477Z,70.14
2023-02-18T09:24:10.740Z,69.94
2023-02-18T09:25:11.000Z,70.04
2023-02-18T09:26:11.269Z,70.14
2023-02-18T09:27:11.545Z,70.35
2023-02-18T09:28:11.820Z,70.45
2023-02-18T09:29:12.104Z,70.45
2023-02-18T09:30:12.477Z,70.35
2023-02-18T09:31:13.262Z,70.14
2023-02-18T09:32:17.813Z,70.45
2023-02-18T09:33:14.215Z,70.66
2023-02-18T09:34:13.540Z,70.45
2023-02-18T09:35:13.841Z,70.66
2023-02-18T09:36:14.100Z,70.86
2023-02-18T09:37:14.392Z,71.07
2023-02-18T09:38:14.669Z,70.97
2023-02-18T09:39:14.950Z,71.07
2023-02-18T09:40:15.511Z,71.17
2023-02-18T09:41:15.477Z,71.28
2023-02-18T09:42:15.745Z,71.28
2023-02-18T09:43:16.042Z,71.89
2023-02-18T09:44:16.306Z,72.30
2023-02-18T09:45:16.571Z,72.41
2023-02-18T09:46:16.910Z,72.30
2023-02-18T09:47:17.172Z,72.13
2023-02-18T09:48:17.453Z,71.92
2023-02-18T09:49:17.720Z,72.24
2023-02-18T09:50:18.005Z,72.24
2023-02-18T09:51:18.276Z,72.44
2023-02-18T09:52:18.523Z,72.44
2023-02-18T09:53:18.798Z,72.54
2023-02-18T09:54:19.082Z,72.54
2023-02-18T09:55:19.356Z,72.64
2023-02-18T09:56:19.644Z,72.64
2023-02-18T09:57:19.939Z,72.72
2023-02-18T09:58:20.195Z,72.72
2023-02-18T09:59:20.469Z,72.72
2023-02-18T10:00:20.774Z,72.51
2023-02-18T10:01:21.047Z,72.61
2023-02-18T10:02:21.338Z,72.72
2023-02-18T10:03:21.623Z,72.72
2023-02-18T10:04:21.936Z,72.72
2023-02-18T10:05:22.219Z,72.72
2023-02-18T10:06:22.517Z,72.81
2023-02-18T10:07:22.831Z,72.72
2023-02-18T10:08:23.130Z,72.61
2023-02-18T10:09:23.419Z,72.51
2023-02-18T10:10:23.679Z,72.61
2023-02-18T10:11:23.965Z,72.61
2023-02-18T10:12:24.207Z,72.81
2023-02-18T10:13:24.514Z,73.33
2023-02-18T10:14:24.817Z,73.64
2023-02-18T10:15:25.103Z,74.05
2023-02-18T10:16:25.406Z,74.36
2023-02-18T10:17:25.701Z,74.67
2023-02-18T10:18:26.002Z,74.77
2023-02-18T10:19:26.242Z,74.77
2023-02-18T10:20:26.555Z,74.87
2023-02-18T10:21:26.833Z,75.08
2023-02-18T10:22:27.090Z,75.49
2023-02-18T10:23:27.386Z,75.80
2023-02-18T10:24:27.653Z,76.21
2023-02-18T10:25:27.933Z,76.83
2023-02-18T10:26:28.205Z,77.14
2023-02-18T10:27:28.466Z,77.55
2023-02-18T10:28:28.715Z,77.75
2023-02-18T10:29:28.985Z,78.37
2023-02-18T10:30:29.283Z,78.78
2023-02-18T10:31:29.738Z,79.03
2023-02-18T10:32:29.759Z,79.33
2023-02-18T10:33:30.073Z,79.54
2023-02-18T10:34:30.319Z,80.05
2023-02-18T10:35:30.581Z,80.57
2023-02-18T10:36:30.834Z,80.88
2023-02-18T10:37:31.089Z,81.29
2023-02-18T10:38:31.403Z,81.70
2023-02-18T10:39:31.664Z,82.01
2023-02-18T10:40:31.923Z,82.32
2023-02-18T10:41:32.192Z,82.42
2023-02-18T10:42:32.448Z,82.63
2023-02-18T10:43:32.716Z,82.83
2023-02-18T10:44:32.968Z,83.14
2023-02-18T10:45:33.578Z,83.35
2023-02-18T10:46:33.523Z,83.70
2023-02-18T10:47:33.780Z,83.80
2023-02-18T10:48:34.058Z,83.90
2023-02-18T10:49:34.311Z,84.00
2023-02-18T10:50:34.583Z,84.21
2023-02-18T10:51:34.833Z,84.21
2023-02-18T10:52:35.097Z,84.42
2023-02-18T10:53:35.358Z,84.31
2023-02-18T10:54:35.630Z,84.31
2023-02-18T10:55:35.881Z,84.42
2023-02-18T10:56:36.204Z,84.42
2023-02-18T10:57:36.364Z,84.52
2023-02-18T10:58:36.631Z,84.52
2023-02-18T10:59:37.049Z,84.52
2023-02-18T11:00:37.263Z,84.52
2023-02-18T11:01:38.316Z,84.62
2023-02-18T11:02:37.772Z,84.62
2023-02-18T11:03:38.756Z,84.42
2023-02-18T11:04:39.193Z,84.31
2023-02-18T11:05:39.407Z,84.31
2023-02-18T11:06:38.989Z,84.31
2023-02-18T11:07:39.245Z,84.21
2023-02-18T11:08:39.521Z,84.21
2023-02-18T11:09:39.761Z,84.42
2023-02-18T11:10:40.044Z,84.52
2023-02-18T11:11:40.288Z,84.62
2023-02-18T11:12:40.544Z,84.72
2023-02-18T11:13:40.810Z,84.93
2023-02-18T11:14:41.082Z,84.79
2023-02-18T11:15:41.314Z,84.69
2023-02-18T11:16:41.600Z,84.79
2023-02-18T11:17:41.871Z,84.89
2023-02-18T11:18:42.133Z,84.79
2023-02-18T11:19:42.424Z,84.69
2023-02-18T11:20:42.674Z,84.58
2023-02-18T11:21:42.924Z,84.27
2023-02-18T11:22:43.174Z,84.27
2023-02-18T11:23:43.448Z,84.38
2023-02-18T11:24:43.696Z,84.17
2023-02-18T11:25:43.964Z,84.17
2023-02-18T11:26:44.261Z,84.27
2023-02-18T11:27:44.540Z,84.17
2023-02-18T11:28:44.786Z,84.21
2023-02-18T11:29:45.050Z,84.42
2023-02-18T11:30:45.348Z,84.62
2023-02-18T11:31:45.631Z,84.62
2023-02-18T11:32:45.918Z,84.62
2023-02-18T11:33:46.198Z,84.83
2023-02-18T11:34:46.442Z,84.93
2023-02-18T11:35:46.676Z,85.03
2023-02-18T11:36:46.938Z,84.83
2023-02-18T11:37:47.253Z,84.93
2023-02-18T11:38:47.537Z,85.14
2023-02-18T11:39:47.831Z,85.24
2023-02-18T11:40:48.126Z,85.14
2023-02-18T11:41:48.389Z,85.24
2023-02-18T11:42:48.658Z,85.24
2023-02-18T11:43:48.942Z,85.34
2023-02-18T11:44:49.229Z,85.44
2023-02-18T11:45:49.532Z,85.24
2023-02-18T11:46:49.892Z,85.03
2023-02-18T11:47:50.181Z,85.03
2023-02-18T11:48:50.462Z,84.99
2023-02-18T11:49:50.730Z,84.89
2023-02-18T11:50:51.010Z,84.99
2023-02-18T11:51:51.279Z,84.89
2023-02-18T11:52:51.703Z,84.79
2023-02-18T11:53:51.872Z,84.79
2023-02-18T11:54:52.211Z,84.89
2023-02-18T11:55:52.465Z,84.99
2023-02-18T11:56:53.885Z,85.10
2023-02-18T11:57:52.980Z,84.99
2023-02-18T11:58:53.254Z,84.89
2023-02-18T11:59:53.506Z,84.79
2023-02-18T12:00:53.799Z,84.58
2023-02-18T12:01:54.075Z,84.38
2023-02-18T12:02:54.356Z,84.38
2023-02-18T12:03:54.641Z,84.69
2023-02-18T12:04:54.930Z,84.69
2023-02-18T12:05:55.179Z,84.79
2023-02-18T12:06:55.454Z,84.69
2023-02-18T12:07:55.700Z,84.79
2023-02-18T12:08:55.971Z,84.89
2023-02-18T12:09:56.270Z,84.79
2023-02-18T12:10:56.530Z,84.79
2023-02-18T12:11:59.173Z,84.79
2023-02-18T12:12:57.121Z,84.69
2023-02-18T12:13:57.372Z,84.69
2023-02-18T12:14:57.710Z,84.89
2023-02-18T12:15:57.993Z,84.89
2023-02-18T12:16:58.260Z,84.89
2023-02-18T12:17:58.543Z,84.99
2023-02-18T12:18:58.800Z,84.89
2023-02-18T12:19:59.063Z,84.69
2023-02-18T12:20:59.325Z,84.69
2023-02-18T12:21:59.595Z,84.58
2023-02-18T12:22:59.895Z,84.27
2023-02-18T12:24:00.208Z,84.48
2023-02-18T12:25:00.538Z,84.58
2023-02-18T12:26:00.832Z,84.69
2023-02-18T12:27:01.125Z,84.79
2023-02-18T12:28:01.425Z,84.79
2023-02-18T12:29:01.749Z,84.79
2023-02-18T12:30:02.015Z,84.69
2023-02-18T12:31:02.334Z,84.79
2023-02-18T12:32:02.802Z,84.58
2023-02-18T12:33:02.918Z,84.58
2023-02-18T12:34:03.205Z,84.89
2023-02-18T12:35:03.502Z,84.89
2023-02-18T12:36:03.738Z,84.99
2023-02-18T12:37:03.989Z,84.79
2023-02-18T12:38:04.236Z,84.79
2023-02-18T12:39:04.518Z,84.69
2023-02-18T12:40:04.831Z,84.69
2023-02-18T12:41:05.101Z,84.79
2023-02-18T12:42:05.372Z,84.99
2023-02-18T12:43:05.632Z,85.20
2023-02-18T12:44:05.980Z,85.41
2023-02-18T12:45:06.162Z,85.51
2023-02-18T12:46:06.602Z,85.61
2023-02-18T12:47:06.698Z,85.61
2023-02-18T12:48:06.969Z,85.51
2023-02-18T12:49:07.261Z,85.61
2023-02-18T12:50:07.521Z,85.51
2023-02-18T12:51:08.061Z,85.41
2023-02-18T12:52:08.046Z,85.34
2023-02-18T12:53:08.326Z,85.55
2023-02-18T12:54:08.632Z,85.65
2023-02-18T12:55:08.932Z,85.75
2023-02-18T12:56:09.573Z,85.96